Time;durP1;ratioP1;P1;durP2;ratioP2;P2;SDS_P1;SDS_P2;PMS_P1;PMS_P2;Temp;Humidity;BMP_temperature;BMP_pressure;BME280_temperature;BME280_humidity;BME280_pressure;Samples;Min_cycle;Max_cycle;Signal;HPM_P1;HPM_P2
2021/12/13 00:01:20;;;;;;;5.03;3.15;;;6.20;99.90;;;;;;5017483;28;20038;-72
2021/12/13 00:04:04;;;;;;;4.90;2.80;;;6.20;99.90;;;;;;5013921;28;20034;-71
2021/12/13 00:06:37;;;;;;;3.95;3.03;;;6.20;99.90;;;;;;5017886;28;20034;-71
2021/12/13 00:09:17;;;;;;;8.85;3.50;;;6.10;99.90;;;;;;5015253;28;20025;-72
2021/12/13 00:11:47;;;;;;;8.00;3.72;;;6.10;99.90;;;;;;5031213;28;20025;-72
2021/12/13 00:14:15;;;;;;;4.85;3.38;;;6.10;99.90;;;;;;5021631;28;20041;-71
2021/12/13 00:16:48;;;;;;;8.52;3.75;;;6.10;99.90;;;;;;5027891;28;20030;-72
2021/12/13 00:19:21;;;;;;;5.97;3.63;;;6.10;99.90;;;;;;5026771;28;20030;-70
2021/12/13 00:21:57;;;;;;;5.95;3.58;;;6.00;99.90;;;;;;5030742;28;20108;-71
2021/12/13 00:24:28;;;;;;;4.88;3.85;;;6.10;99.90;;;;;;5028517;28;20025;-72
2021/12/13 00:27:22;;;;;;;4.20;3.80;;;6.10;99.90;;;;;;5026245;28;20045;-73
2021/12/13 00:29:59;;;;;;;4.82;3.47;;;6.10;99.90;;;;;;5025809;28;20022;-74
2021/12/13 00:32:46;;;;;;;5.60;3.30;;;6.10;99.90;;;;;;5017609;28;20024;-74
2021/12/13 00:35:19;;;;;;;9.38;3.83;;;6.10;99.90;;;;;;5020679;28;20550;-75
2021/12/13 00:37:49;;;;;;;7.35;4.28;;;6.10;99.90;;;;;;5023956;28;20025;-75
2021/12/13 00:40:34;;;;;;;9.17;3.87;;;6.10;99.90;;;;;;5023152;28;20521;-75
2021/12/13 00:43:09;;;;;;;5.38;4.13;;;6.10;99.90;;;;;;5015062;28;20095;-75
2021/12/13 00:45:40;;;;;;;8.68;3.85;;;6.10;99.90;;;;;;5020839;28;20025;-76
2021/12/13 00:48:07;;;;;;;8.50;4.75;;;6.10;99.90;;;;;;5020652;28;20490;-76
2021/12/13 00:50:59;;;;;;;7.75;4.47;;;6.10;99.90;;;;;;5020262;28;20030;-76
2021/12/13 00:53:26;;;;;;;7.43;3.65;;;6.10;99.90;;;;;;5022307;28;20033;-75
2021/12/13 00:55:52;;;;;;;9.60;3.53;;;6.10;99.90;;;;;;5023839;28;20077;-75
2021/12/13 00:58:21;;;;;;;9.98;4.00;;;6.10;99.90;;;;;;5025941;28;20187;-75
2021/12/13 01:00:57;;;;;;;5.32;3.67;;;6.20;99.90;;;;;;5021771;28;20026;-75
2021/12/13 01:03:37;;;;;;;9.80;4.40;;;6.20;99.90;;;;;;5025740;28;20030;-74
2021/12/13 01:06:41;;;;;;;8.55;4.40;;;6.20;99.90;;;;;;5018159;28;20112;-75
2021/12/13 01:10:00;;;;;;;5.10;3.67;;;6.20;99.90;;;;;;5017425;28;20073;-74
2021/12/13 01:12:27;;;;;;;11.02;5.95;;;6.20;99.90;;;;;;5019995;28;20486;-74
2021/12/13 01:15:28;;;;;;;7.15;4.80;;;6.10;99.90;;;;;;5018090;28;20125;-75
2021/12/13 01:18:15;;;;;;;9.07;4.70;;;6.20;99.90;;;;;;5023025;28;20018;-75
2021/12/13 01:21:03;;;;;;;9.57;5.38;;;6.20;99.90;;;;;;5028080;28;20480;-75
2021/12/13 01:23:49;;;;;;;9.88;5.25;;;6.10;99.90;;;;;;5032759;28;20037;-74
2021/12/13 01:26:36;;;;;;;11.07;5.93;;;6.10;99.90;;;;;;5032192;28;20033;-74
2021/12/13 01:29:18;;;;;;;6.55;4.72;;;6.10;99.90;;;;;;5039672;28;20014;-74
2021/12/13 01:32:02;;;;;;;6.07;4.65;;;6.00;99.90;;;;;;5039108;28;20032;-74
2021/12/13 01:34:30;;;;;;;9.30;5.70;;;6.00;99.90;;;;;;5027365;28;20108;-74
2021/12/13 01:37:08;;;;;;;12.55;6.43;;;6.00;99.90;;;;;;5038017;28;20575;-74
2021/12/13 01:39:37;;;;;;;8.40;5.55;;;6.00;99.90;;;;;;5027511;28;20087;-75
2021/12/13 01:42:14;;;;;;;8.82;6.38;;;5.90;99.90;;;;;;5029811;28;20022;-74
2021/12/13 01:44:47;;;;;;;11.27;6.88;;;5.90;99.90;;;;;;5034361;28;20080;-74
2021/12/13 01:47:24;;;;;;;10.93;6.07;;;5.90;99.90;;;;;;5033879;28;20026;-74
2021/12/13 01:49:54;;;;;;;10.30;5.85;;;5.90;99.90;;;;;;5024257;28;20021;-75
2021/12/13 01:52:25;;;;;;;13.47;5.70;;;5.90;99.90;;;;;;5018501;28;20040;-74
2021/12/13 01:54:52;;;;;;;7.10;5.22;;;5.90;99.90;;;;;;5025099;28;20272;-75
2021/12/13 01:57:24;;;;;;;7.85;5.63;;;5.90;99.90;;;;;;5030327;28;20155;-76
2021/12/13 02:00:08;;;;;;;11.95;5.63;;;5.90;99.90;;;;;;5033730;28;20080;-73
2021/12/13 02:02:38;;;;;;;7.90;6.00;;;5.90;99.90;;;;;;5030548;28;20037;-73
2021/12/13 02:05:06;;;;;;;11.52;7.50;;;5.90;99.90;;;;;;5028510;28;20046;-75
2021/12/13 02:07:37;;;;;;;8.13;6.07;;;5.90;99.90;;;;;;5030875;28;20041;-74
2021/12/13 02:10:14;;;;;;;13.15;5.93;;;5.90;99.90;;;;;;5033231;28;20013;-75
2021/12/13 02:12:42;;;;;;;8.18;5.97;;;5.90;99.90;;;;;;5024445;28;20009;-75
2021/12/13 02:17:55;;;;;;;7.03;5.78;;;5.90;99.90;;;;;;5020049;28;20056;-75
2021/12/13 02:20:39;;;;;;;7.28;5.47;;;6.00;99.90;;;;;;5019781;28;20123;-75
2021/12/13 02:23:05;;;;;;;14.75;7.63;;;6.00;99.90;;;;;;5028642;28;20505;-75
2021/12/13 02:25:36;;;;;;;7.43;5.82;;;6.00;99.90;;;;;;5020609;28;20026;-74
2021/12/13 02:28:04;;;;;;;13.98;7.20;;;5.90;99.90;;;;;;5021268;28;20021;-76
2021/12/13 02:30:39;;;;;;;11.93;6.57;;;5.90;99.90;;;;;;5023215;28;20071;-75
2021/12/13 02:33:12;;;;;;;10.27;7.18;;;5.90;99.90;;;;;;5024281;28;20108;-76
2021/12/13 02:35:43;;;;;;;10.10;7.05;;;5.90;99.90;;;;;;5020382;28;20017;-75
2021/12/13 02:38:11;;;;;;;9.02;6.53;;;5.90;99.90;;;;;;5024468;28;20025;-75
2021/12/13 02:40:38;;;;;;;20.30;8.07;;;5.90;99.90;;;;;;5022081;28;20378;-76
2021/12/13 02:43:06;;;;;;;11.57;6.82;;;5.90;99.90;;;;;;5022568;28;20030;-75
2021/12/13 02:45:42;;;;;;;15.80;7.20;;;5.90;99.90;;;;;;5013755;28;20041;-75
2021/12/13 02:48:27;;;;;;;12.45;6.82;;;5.90;99.90;;;;;;5017946;28;20192;-75
2021/12/13 02:50:59;;;;;;;11.18;6.85;;;5.90;99.90;;;;;;5013498;28;20014;-75
2021/12/13 02:53:41;;;;;;;10.15;7.57;;;5.90;99.90;;;;;;5026426;28;20025;-75
2021/12/13 02:56:07;;;;;;;7.30;6.05;;;5.90;99.90;;;;;;5025122;28;20113;-75
2021/12/13 02:58:35;;;;;;;9.27;7.57;;;5.80;99.90;;;;;;5025524;28;20033;-76
2021/12/13 03:01:20;;;;;;;9.25;7.15;;;5.80;99.90;;;;;;5017380;28;20026;-75
2021/12/13 03:03:50;;;;;;;10.90;6.57;;;5.90;99.90;;;;;;5027006;28;20026;-75
2021/12/13 03:06:22;;;;;;;10.68;7.13;;;5.90;99.90;;;;;;5022423;28;20025;-75
2021/12/13 03:08:52;;;;;;;11.32;7.18;;;5.90;99.90;;;;;;5021871;28;20018;-75
2021/12/13 03:11:28;;;;;;;12.05;6.25;;;5.90;99.90;;;;;;5022781;28;20017;-75
2021/12/13 03:14:16;;;;;;;13.02;7.45;;;5.90;99.90;;;;;;5022198;28;20022;-76
2021/12/13 03:16:59;;;;;;;9.43;6.78;;;5.90;99.90;;;;;;5025202;28;20013;-75
2021/12/13 03:19:42;;;;;;;10.57;7.18;;;6.10;99.90;;;;;;5019012;28;20156;-75
2021/12/13 03:22:17;;;;;;;12.98;6.35;;;6.30;99.90;;;;;;5026292;28;20028;-76
2021/12/13 03:24:51;;;;;;;11.15;7.75;;;6.30;99.90;;;;;;5022795;28;20120;-76
2021/12/13 03:27:29;;;;;;;10.93;6.43;;;6.30;99.90;;;;;;5023000;28;20420;-76
2021/12/13 03:30:29;;;;;;;10.30;7.00;;;6.30;99.90;;;;;;5030033;28;20477;-75
2021/12/13 03:33:01;;;;;;;6.90;6.07;;;6.30;99.90;;;;;;4999314;28;20036;-75
2021/12/13 03:35:45;;;;;;;8.63;6.25;;;6.30;99.90;;;;;;5026786;28;20029;-75
2021/12/13 03:38:18;;;;;;;9.52;6.38;;;6.30;99.90;;;;;;5023612;28;20034;-75
2021/12/13 03:40:48;;;;;;;12.45;6.65;;;6.30;99.90;;;;;;5016343;28;20045;-74
2021/12/13 03:43:24;;;;;;;9.90;6.95;;;6.30;99.90;;;;;;5020877;28;20037;-75
2021/12/13 03:45:52;;;;;;;11.73;6.32;;;6.30;99.90;;;;;;5022607;28;20037;-73
2021/12/13 03:48:23;;;;;;;9.40;8.05;;;6.30;99.90;;;;;;5022518;28;20064;-74
2021/12/13 03:50:54;;;;;;;8.05;6.70;;;6.20;99.90;;;;;;5015107;28;20022;-74
2021/12/13 03:53:25;;;;;;;11.52;7.05;;;6.20;99.90;;;;;;5017999;28;20025;-74
2021/12/13 03:55:56;;;;;;;9.50;6.82;;;6.30;99.90;;;;;;5016334;28;20486;-74
2021/12/13 03:58:23;;;;;;;9.10;7.05;;;6.30;99.90;;;;;;5025723;28;20038;-74
2021/12/13 04:01:13;;;;;;;12.13;7.57;;;6.30;99.90;;;;;;5027415;28;20472;-75
2021/12/13 04:03:41;;;;;;;12.98;7.47;;;6.40;99.90;;;;;;5027611;28;20148;-74
2021/12/13 04:06:07;;;;;;;9.80;6.85;;;6.30;99.90;;;;;;5031381;28;20029;-74
2021/12/13 04:08:33;;;;;;;10.90;6.70;;;6.40;99.90;;;;;;5014625;28;20500;-74
2021/12/13 04:11:03;;;;;;;7.30;6.47;;;6.40;99.90;;;;;;5017107;28;20022;-73
2021/12/13 04:13:35;;;;;;;11.45;7.00;;;6.30;99.90;;;;;;5022225;28;20045;-72
2021/12/13 04:16:30;;;;;;;10.20;6.95;;;6.30;99.90;;;;;;5022476;28;20503;-74
2021/12/13 04:21:34;;;;;;;12.63;7.70;;;6.20;99.90;;;;;;5022119;28;20028;-74
2021/12/13 04:24:04;;;;;;;11.05;7.22;;;6.30;99.90;;;;;;5022853;28;20025;-72
2021/12/13 04:26:35;;;;;;;8.57;7.30;;;6.20;99.90;;;;;;5020457;28;20378;-74
2021/12/13 04:29:01;;;;;;;10.50;6.93;;;6.40;99.90;;;;;;5020004;28;20026;-73
2021/12/13 04:31:35;;;;;;;18.02;8.93;;;6.40;99.90;;;;;;5013531;28;20022;-73
2021/12/13 04:34:05;;;;;;;13.85;8.07;;;6.30;99.90;;;;;;5027045;28;20021;-74
2021/12/13 04:36:35;;;;;;;9.10;7.10;;;6.30;99.90;;;;;;5028179;28;20105;-74
2021/12/13 04:39:27;;;;;;;9.27;6.78;;;6.30;99.90;;;;;;5016037;28;20018;-74
2021/12/13 04:42:09;;;;;;;11.23;7.70;;;6.50;99.90;;;;;;5022460;28;20022;-75
2021/12/13 04:44:43;;;;;;;12.07;7.38;;;6.40;99.90;;;;;;5042390;28;20022;-74
2021/12/13 04:47:14;;;;;;;11.60;8.02;;;6.40;99.90;;;;;;5044585;28;20028;-74
2021/12/13 04:49:51;;;;;;;13.00;6.97;;;6.40;99.90;;;;;;5037875;28;20014;-74
2021/12/13 04:52:20;;;;;;;13.82;7.68;;;6.50;99.90;;;;;;5038341;28;20049;-75
2021/12/13 04:54:50;;;;;;;9.77;7.50;;;6.50;99.90;;;;;;5038257;28;20033;-74
2021/12/13 04:57:18;;;;;;;16.80;7.93;;;6.50;99.90;;;;;;5028576;28;20029;-73
2021/12/13 04:59:54;;;;;;;12.18;7.28;;;6.50;99.90;;;;;;5016704;28;20037;-75
2021/12/13 05:02:21;;;;;;;12.38;7.60;;;6.40;99.90;;;;;;5028312;28;20014;-74
2021/12/13 05:04:53;;;;;;;11.32;7.65;;;6.40;99.90;;;;;;5024565;28;20490;-74
2021/12/13 05:07:19;;;;;;;12.88;8.10;;;6.40;99.90;;;;;;5023400;28;20481;-74
2021/12/13 05:09:47;;;;;;;11.52;8.02;;;6.40;99.90;;;;;;5024062;28;20096;-73
2021/12/13 05:12:16;;;;;;;10.55;7.45;;;6.40;99.90;;;;;;5025774;28;20018;-73
2021/12/13 05:14:41;;;;;;;11.52;8.38;;;6.40;99.90;;;;;;5014086;28;20056;-72
2021/12/13 05:17:19;;;;;;;9.30;7.50;;;6.40;99.90;;;;;;5024045;28;20041;-73
2021/12/13 05:19:49;;;;;;;7.97;6.85;;;6.40;99.90;;;;;;5020544;28;20022;-74
2021/12/13 05:22:16;;;;;;;18.90;7.38;;;6.30;99.90;;;;;;5028492;28;20025;-75
2021/12/13 05:24:57;;;;;;;8.45;7.50;;;6.30;99.90;;;;;;5023475;28;20437;-74
2021/12/13 05:27:33;;;;;;;12.53;7.43;;;6.30;99.90;;;;;;5023135;28;20480;-74
2021/12/13 05:30:16;;;;;;;10.38;8.25;;;6.30;99.90;;;;;;5020065;28;20280;-72
2021/12/13 05:32:53;;;;;;;10.43;8.18;;;6.30;99.90;;;;;;5016228;28;20018;-74
2021/12/13 05:35:28;;;;;;;9.32;7.57;;;6.40;99.90;;;;;;5017250;28;20032;-74
2021/12/13 05:37:58;;;;;;;13.25;8.57;;;6.40;99.90;;;;;;5023480;28;20032;-76
2021/12/13 05:40:44;;;;;;;11.68;8.13;;;6.40;99.90;;;;;;5012344;28;20437;-73
2021/12/13 05:43:23;;;;;;;12.38;8.38;;;6.50;99.90;;;;;;5029064;28;20088;-73
2021/12/13 05:45:53;;;;;;;15.43;8.95;;;6.60;99.90;;;;;;5019963;28;20027;-75
2021/12/13 05:48:34;;;;;;;13.50;8.60;;;6.70;99.90;;;;;;5030055;28;20060;-74
2021/12/13 05:51:02;;;;;;;13.60;9.02;;;6.80;99.90;;;;;;5024460;28;20024;-74
2021/12/13 05:53:38;;;;;;;10.25;8.50;;;6.80;99.90;;;;;;5012922;28;20034;-75
2021/12/13 05:56:11;;;;;;;12.13;8.65;;;6.80;99.90;;;;;;5030081;28;20048;-74
2021/12/13 05:58:44;;;;;;;18.08;8.98;;;6.70;99.90;;;;;;5021740;28;20056;-73
2021/12/13 06:01:19;;;;;;;19.75;10.05;;;6.70;99.90;;;;;;5020658;28;20104;-74
2021/12/13 06:03:56;;;;;;;13.90;8.38;;;6.60;99.90;;;;;;5020232;28;20034;-74
2021/12/13 06:06:27;;;;;;;15.90;8.88;;;6.80;99.90;;;;;;5021228;28;20022;-75
2021/12/13 06:08:55;;;;;;;10.63;8.52;;;6.90;99.90;;;;;;5012725;28;20022;-75
2021/12/13 06:11:32;;;;;;;12.20;9.40;;;6.80;99.90;;;;;;5020624;28;20374;-74
2021/12/13 06:14:15;;;;;;;14.25;9.00;;;6.70;99.90;;;;;;5023008;28;20425;-75
2021/12/13 06:16:55;;;;;;;12.68;9.43;;;6.70;99.90;;;;;;5021232;28;20018;-73
2021/12/13 06:19:34;;;;;;;13.52;9.55;;;6.60;99.90;;;;;;5016538;28;20024;-75
2021/12/13 06:22:10;;;;;;;11.25;9.20;;;6.40;99.90;;;;;;5021262;28;20022;-74
2021/12/13 06:24:59;;;;;;;12.15;8.75;;;6.40;99.90;;;;;;5020641;28;20053;-74
2021/12/13 06:27:48;;;;;;;12.90;9.75;;;6.40;99.90;;;;;;5015028;28;20030;-74
2021/12/13 06:30:28;;;;;;;14.70;9.32;;;6.40;99.90;;;;;;5022154;28;20060;-75
2021/12/13 06:33:01;;;;;;;12.77;9.63;;;6.50;99.90;;;;;;5015885;28;20494;-74
2021/12/13 06:35:32;;;;;;;13.07;8.98;;;6.50;99.90;;;;;;5023518;28;20398;-74
2021/12/13 06:38:00;;;;;;;14.60;9.77;;;6.60;99.90;;;;;;5025845;28;20077;-74
2021/12/13 06:40:29;;;;;;;12.05;9.80;;;6.50;99.90;;;;;;5021273;28;20030;-75
2021/12/13 06:42:58;;;;;;;14.25;11.15;;;6.50;99.90;;;;;;5019617;28;20022;-73
2021/12/13 06:45:33;;;;;;;12.77;10.55;;;6.50;99.90;;;;;;5019135;28;20375;-74
2021/12/13 06:48:01;;;;;;;12.57;8.98;;;6.60;99.90;;;;;;5015779;28;20025;-76
2021/12/13 06:50:33;;;;;;;12.95;9.45;;;6.50;99.90;;;;;;5020957;28;20049;-75
2021/12/13 06:53:18;;;;;;;13.55;10.57;;;6.50;99.90;;;;;;5017321;28;20022;-73
2021/12/13 06:55:45;;;;;;;14.77;9.43;;;6.50;99.90;;;;;;5019946;28;20114;-74
2021/12/13 06:58:19;;;;;;;14.85;10.02;;;6.70;99.90;;;;;;5028481;28;20057;-74
2021/12/13 07:00:49;;;;;;;13.48;9.30;;;6.80;99.90;;;;;;5024153;28;20021;-75
2021/12/13 07:03:22;;;;;;;14.15;9.70;;;6.70;99.90;;;;;;5026706;28;20029;-72
2021/12/13 07:05:52;;;;;;;16.83;10.70;;;6.70;99.90;;;;;;5030234;28;20485;-74
2021/12/13 07:08:28;;;;;;;14.23;9.63;;;6.70;99.90;;;;;;5024448;28;20053;-76
2021/12/13 07:10:57;;;;;;;14.13;9.60;;;6.60;99.90;;;;;;5034034;28;20021;-75
2021/12/13 07:13:25;;;;;;;14.48;9.20;;;6.70;99.90;;;;;;5022974;28;20422;-74
2021/12/13 07:16:04;;;;;;;12.50;9.77;;;6.60;99.90;;;;;;5020630;28;20018;-75
2021/12/13 07:18:39;;;;;;;17.40;10.13;;;6.50;99.90;;;;;;5021825;28;20057;-73
2021/12/13 07:21:24;;;;;;;12.40;9.52;;;6.50;99.90;;;;;;5025240;28;20047;-75
2021/12/13 07:24:09;;;;;;;15.02;9.60;;;6.70;99.90;;;;;;5031355;28;20026;-74
2021/12/13 07:26:37;;;;;;;20.23;9.77;;;6.80;99.90;;;;;;5024107;28;20109;-74
2021/12/13 07:29:21;;;;;;;13.27;9.48;;;6.80;99.90;;;;;;5016572;28;20022;-74
2021/12/13 07:32:09;;;;;;;14.15;10.55;;;6.70;99.90;;;;;;5024258;28;20033;-75
2021/12/13 07:34:47;;;;;;;12.60;10.63;;;6.60;99.90;;;;;;5031411;28;20025;-75
2021/12/13 07:37:13;;;;;;;13.55;9.68;;;6.60;99.90;;;;;;5027498;28;20032;-75
2021/12/13 07:39:39;;;;;;;14.32;10.35;;;6.60;99.90;;;;;;5022208;28;20018;-73
2021/12/13 07:42:08;;;;;;;15.13;10.70;;;6.60;99.90;;;;;;5032141;28;20025;-75
2021/12/13 07:44:33;;;;;;;13.15;9.27;;;6.80;99.90;;;;;;5028592;28;20077;-74
2021/12/13 07:47:13;;;;;;;17.30;10.35;;;7.00;99.90;;;;;;5020858;28;20020;-75
2021/12/13 07:49:43;;;;;;;14.52;9.82;;;7.20;99.90;;;;;;5018993;28;20083;-74
2021/12/13 07:52:10;;;;;;;15.25;9.82;;;7.20;99.90;;;;;;5018027;28;20110;-74
2021/12/13 07:54:40;;;;;;;16.75;11.43;;;7.20;99.90;;;;;;5027672;28;20022;-76
2021/12/13 07:57:23;;;;;;;17.35;11.43;;;7.10;99.90;;;;;;5033091;28;20389;-73
2021/12/13 07:59:50;;;;;;;19.48;11.18;;;7.00;99.90;;;;;;5024777;28;20104;-74
2021/12/13 08:02:30;;;;;;;13.95;10.55;;;6.90;99.90;;;;;;5030081;28;20040;-73
2021/12/13 08:04:55;;;;;;;12.95;11.18;;;6.80;99.90;;;;;;5022131;28;20053;-73
2021/12/13 08:07:27;;;;;;;16.30;11.40;;;6.80;99.90;;;;;;5023144;28;20383;-73
2021/12/13 08:10:04;;;;;;;12.68;10.50;;;6.80;99.90;;;;;;5021807;28;20022;-74
2021/12/13 08:12:36;;;;;;;13.82;9.55;;;6.80;99.90;;;;;;5023884;28;20482;-76
2021/12/13 08:15:11;;;;;;;16.35;11.25;;;6.90;99.90;;;;;;5019962;28;20040;-74
2021/12/13 08:17:50;;;;;;;13.18;9.70;;;7.00;99.90;;;;;;5030472;28;20053;-74
2021/12/13 08:20:29;;;;;;;16.83;10.80;;;6.90;99.90;;;;;;5016411;28;20461;-73
2021/12/13 08:22:56;;;;;;;11.85;9.73;;;6.90;99.90;;;;;;5021887;28;20022;-75
2021/12/13 08:25:37;;;;;;;9.95;8.18;;;6.90;99.90;;;;;;5023328;28;20452;-74
2021/12/13 08:28:06;;;;;;;12.25;8.80;;;7.00;99.90;;;;;;5027093;28;20013;-74
2021/12/13 08:30:34;;;;;;;13.40;10.32;;;7.10;99.90;;;;;;5016541;28;20025;-74
2021/12/13 08:33:04;;;;;;;13.35;9.57;;;7.20;99.90;;;;;;5026093;28;20044;-72
2021/12/13 08:36:03;;;;;;;12.10;9.90;;;7.40;99.90;;;;;;5017191;28;20552;-74
2021/12/13 08:38:51;;;;;;;16.60;10.13;;;7.60;99.90;;;;;;5017774;28;20072;-75
2021/12/13 08:41:31;;;;;;;15.15;10.65;;;7.80;99.90;;;;;;5019221;28;20026;-74
2021/12/13 08:44:12;;;;;;;18.95;10.45;;;8.00;99.90;;;;;;5022105;28;20457;-73
2021/12/13 08:46:57;;;;;;;13.07;9.15;;;8.10;99.90;;;;;;5019571;28;20026;-75
2021/12/13 08:49:44;;;;;;;14.50;11.20;;;8.10;99.90;;;;;;5015812;28;20073;-75
2021/12/13 08:52:15;;;;;;;14.45;10.52;;;8.20;99.90;;;;;;5016948;28;20052;-74
2021/12/13 08:54:53;;;;;;;11.00;9.80;;;8.20;99.90;;;;;;5024934;28;20087;-73
2021/12/13 08:57:53;;;;;;;16.10;10.63;;;8.40;99.90;;;;;;5018528;28;20091;-73
2021/12/13 09:00:25;;;;;;;12.38;9.65;;;8.50;99.90;;;;;;5016518;28;20037;-73
2021/12/13 09:02:54;;;;;;;15.70;11.80;;;8.40;99.90;;;;;;5020806;28;20037;-72
2021/12/13 09:05:26;;;;;;;11.98;9.10;;;8.40;99.90;;;;;;5026938;28;20026;-74
2021/12/13 09:08:01;;;;;;;13.52;9.93;;;8.40;99.90;;;;;;5023635;28;20022;-74
2021/12/13 09:10:45;;;;;;;10.85;9.63;;;8.50;99.90;;;;;;5015969;28;20022;-73
2021/12/13 09:13:12;;;;;;;12.38;9.60;;;8.40;99.90;;;;;;5030799;28;20032;-74
2021/12/13 09:15:38;;;;;;;15.02;9.93;;;8.40;99.90;;;;;;5024785;28;20057;-73
2021/12/13 09:18:06;;;;;;;14.20;9.68;;;8.20;99.90;;;;;;5018590;28;20052;-73
2021/12/13 09:20:42;;;;;;;12.15;9.75;;;8.20;99.90;;;;;;5018368;28;20072;-74
2021/12/13 09:23:22;;;;;;;17.10;11.15;;;8.10;99.90;;;;;;5025369;28;20026;-72
2021/12/13 09:26:02;;;;;;;11.88;10.60;;;8.30;99.90;;;;;;5021950;28;20045;-72
2021/12/13 09:28:35;;;;;;;13.88;10.50;;;8.30;99.90;;;;;;5023353;28;20014;-73
2021/12/13 09:31:11;;;;;;;19.35;10.88;;;8.20;99.90;;;;;;5027286;28;20020;-74
2021/12/13 09:33:39;;;;;;;15.23;10.63;;;8.20;99.90;;;;;;5020389;28;20022;-74
2021/12/13 09:36:08;;;;;;;11.13;9.93;;;8.30;99.90;;;;;;5026869;28;20045;-72
2021/12/13 09:38:58;;;;;;;14.65;10.80;;;8.40;99.90;;;;;;5049787;28;20022;-72
2021/12/13 09:41:36;;;;;;;12.68;9.55;;;8.60;99.90;;;;;;5027774;28;20057;-73
2021/12/13 09:44:16;;;;;;;13.52;10.35;;;8.70;99.90;;;;;;5030781;28;20045;-73
2021/12/13 09:47:00;;;;;;;11.77;9.13;;;8.80;99.90;;;;;;5024144;28;20450;-72
2021/12/13 09:49:33;;;;;;;16.23;10.18;;;8.70;99.90;;;;;;5019661;28;20556;-72
2021/12/13 09:52:08;;;;;;;28.10;12.40;;;8.70;99.90;;;;;;5027116;28;20426;-73
2021/12/13 09:54:54;;;;;;;14.77;11.70;;;8.70;99.90;;;;;;5025668;28;20034;-72
2021/12/13 09:57:49;;;;;;;15.55;10.35;;;8.90;99.90;;;;;;5021399;28;20026;-73
2021/12/13 10:00:26;;;;;;;14.70;10.55;;;9.30;99.90;;;;;;5027414;28;20043;-72
2021/12/13 10:02:56;;;;;;;17.15;11.18;;;9.50;99.90;;;;;;5023694;28;20068;-72
2021/12/13 10:05:30;;;;;;;15.15;12.48;;;9.60;99.90;;;;;;5014827;28;20049;-72
2021/12/13 10:08:01;;;;;;;19.65;12.07;;;9.60;99.90;;;;;;5013436;28;20029;-73
2021/12/13 10:10:40;;;;;;;18.73;12.65;;;9.60;99.90;;;;;;5024921;28;20022;-71
2021/12/13 10:13:12;;;;;;;17.23;11.00;;;9.50;99.90;;;;;;5021683;28;20113;-72
2021/12/13 10:15:39;;;;;;;;;;;9.60;99.90;;;;;;5017315;28;20021;-73
2021/12/13 10:18:16;;;;;;;17.92;11.73;;;9.60;99.90;;;;;;5014236;28;19915;-72
2021/12/13 10:20:47;;;;;;;16.23;11.57;;;9.70;99.90;;;;;;5014924;28;20025;-73
2021/12/13 10:23:18;;;;;;;21.20;12.40;;;9.70;99.90;;;;;;5021982;28;20018;-75
2021/12/13 10:25:45;;;;;;;;;;;9.80;99.90;;;;;;5017808;28;20124;-73
2021/12/13 10:28:15;;;;;;;15.57;12.60;;;9.70;99.90;;;;;;5012798;28;20267;-73
2021/12/13 10:30:48;;;;;;;18.88;12.30;;;9.80;99.90;;;;;;5019231;28;20018;-71
2021/12/13 10:33:17;;;;;;;21.35;12.93;;;9.80;99.90;;;;;;5015339;28;20698;-72
2021/12/13 10:35:43;;;;;;;20.98;12.30;;;9.90;99.90;;;;;;5017451;28;20022;-73
2021/12/13 10:38:27;;;;;;;13.82;12.05;;;9.90;99.90;;;;;;5013328;28;20532;-73
2021/12/13 10:41:08;;;;;;;17.77;12.13;;;10.00;99.90;;;;;;5027082;28;20040;-73
2021/12/13 10:43:41;;;;;;;14.00;10.70;;;9.80;99.90;;;;;;5028414;28;20029;-73
2021/12/13 10:46:14;;;;;;;14.43;10.73;;;9.80;99.90;;;;;;5022645;28;20021;-74
2021/12/13 10:48:46;;;;;;;14.25;11.13;;;9.70;99.90;;;;;;5024996;28;20485;-75
2021/12/13 10:51:15;;;;;;;17.63;11.20;;;9.90;99.90;;;;;;5022839;28;20060;-73
2021/12/13 10:53:43;;;;;;;17.80;11.75;;;10.00;99.90;;;;;;5027919;28;20011;-75
2021/12/13 10:56:18;;;;;;;16.67;10.98;;;10.00;99.90;;;;;;5029789;28;20425;-74
2021/12/13 10:58:50;;;;;;;18.35;12.18;;;10.00;99.90;;;;;;5026469;28;20059;-75
2021/12/13 11:01:21;;;;;;;15.88;11.52;;;9.90;99.90;;;;;;5025983;28;20025;-74
2021/12/13 11:03:50;;;;;;;17.08;11.27;;;10.00;99.90;;;;;;5030094;28;20030;-73
2021/12/13 11:06:19;;;;;;;12.82;9.88;;;10.00;99.90;;;;;;5026981;28;20076;-76
2021/12/13 11:08:45;;;;;;;13.15;11.40;;;10.10;99.90;;;;;;5028375;28;20025;-77
2021/12/13 11:11:19;;;;;;;19.52;11.40;;;10.00;99.90;;;;;;5031379;28;20477;-77
2021/12/13 11:13:49;;;;;;;17.13;11.38;;;10.00;99.90;;;;;;5025417;28;20028;-78
2021/12/13 11:16:37;;;;;;;22.65;11.48;;;9.90;99.90;;;;;;5028838;28;20044;-78
2021/12/13 11:19:05;;;;;;;17.10;11.27;;;10.00;99.90;;;;;;5035868;28;20027;-77
2021/12/13 11:21:35;;;;;;;16.45;10.35;;;10.10;99.90;;;;;;5027741;28;20027;-76
2021/12/13 11:24:02;;;;;;;14.32;10.82;;;10.20;99.90;;;;;;5028376;28;20076;-73
2021/12/13 11:26:31;;;;;;;19.25;11.25;;;10.20;99.90;;;;;;5049039;28;20113;-73
2021/12/13 11:29:00;;;;;;;17.90;10.85;;;10.10;99.90;;;;;;5025987;28;20017;-76
2021/12/13 11:31:32;;;;;;;18.38;11.07;;;10.20;99.90;;;;;;5029601;28;20026;-75
2021/12/13 11:34:01;;;;;;;16.17;10.38;;;10.30;99.90;;;;;;5029334;28;20021;-74
2021/12/13 11:36:48;;;;;;;11.52;10.05;;;10.30;99.90;;;;;;5022550;28;20033;-76
2021/12/13 11:39:51;;;;;;;17.83;10.85;;;10.20;99.90;;;;;;5024621;28;20030;-76
2021/12/13 11:42:44;;;;;;;18.27;10.90;;;10.30;99.90;;;;;;5044442;28;20037;-73
2021/12/13 11:45:12;;;;;;;16.05;9.57;;;10.30;99.90;;;;;;5038312;28;20121;-73
2021/12/13 11:48:12;;;;;;;12.15;9.32;;;10.40;99.90;;;;;;5045745;28;20025;-72
2021/12/13 11:51:16;;;;;;;17.40;10.23;;;10.40;99.90;;;;;;5029573;28;20017;-73
2021/12/13 11:53:42;;;;;;;14.73;9.52;;;10.00;99.90;;;;;;5026628;28;20022;-74
2021/12/13 11:56:34;;;;;;;12.43;9.75;;;10.20;99.90;;;;;;5029784;28;20040;-77
2021/12/13 11:59:37;;;;;;;17.15;9.65;;;10.30;99.90;;;;;;5019122;28;20013;-75
2021/12/13 12:02:08;;;;;;;14.15;9.95;;;10.30;99.90;;;;;;5021696;28;20036;-77
2021/12/13 12:04:52;;;;;;;;;;;10.50;99.90;;;;;;5018533;28;20125;-75
2021/12/13 12:07:43;;;;;;;17.77;10.52;;;10.60;99.90;;;;;;5024514;28;19955;-77
2021/12/13 12:10:27;;;;;;;13.88;9.77;;;10.60;99.90;;;;;;5023697;28;20076;-77
2021/12/13 12:13:29;;;;;;;16.08;10.23;;;10.60;99.90;;;;;;5031232;28;20097;-77
2021/12/13 12:16:02;;;;;;;;;;;10.50;99.90;;;;;;5023754;28;20104;-78
2021/12/13 12:18:33;;;;;;;13.23;9.02;;;10.10;99.90;;;;;;5024938;28;19905;-76
2021/12/13 12:21:30;;;;;;;12.80;8.63;;;10.30;99.90;;;;;;5033839;28;20013;-76
2021/12/13 12:23:57;;;;;;;13.48;8.88;;;10.30;99.90;;;;;;5037338;28;20167;-77
2021/12/13 12:26:22;;;;;;;12.35;9.32;;;10.40;99.90;;;;;;5023498;28;20172;-77
2021/12/13 12:28:49;;;;;;;13.35;9.70;;;10.30;99.90;;;;;;5027512;28;20037;-77
2021/12/13 12:31:15;;;;;;;12.35;9.50;;;10.40;99.90;;;;;;5016615;28;20383;-75
2021/12/13 12:33:41;;;;;;;15.30;10.45;;;10.50;99.90;;;;;;5026152;28;20021;-77
2021/12/13 12:36:22;;;;;;;13.48;9.85;;;10.60;99.90;;;;;;5020147;28;20033;-76
2021/12/13 12:39:03;;;;;;;14.82;9.95;;;10.60;99.90;;;;;;5029665;28;20086;-78
2021/12/13 12:42:02;;;;;;;13.25;9.90;;;10.60;99.90;;;;;;5024581;28;20053;-76
2021/12/13 12:44:35;;;;;;;11.80;9.60;;;10.60;99.90;;;;;;5028810;28;20495;-77
2021/12/13 12:47:01;;;;;;;12.55;9.60;;;10.40;99.90;;;;;;5023750;28;20509;-76
2021/12/13 12:49:27;;;;;;;14.40;9.77;;;10.40;99.90;;;;;;5030535;28;20113;-78
2021/12/13 12:52:03;;;;;;;14.93;9.70;;;10.60;99.90;;;;;;5026968;28;20037;-77
2021/12/13 12:54:34;;;;;;;11.45;9.45;;;10.60;99.90;;;;;;5026834;28;20105;-78
2021/12/13 12:57:00;;;;;;;;;;;10.50;99.90;;;;;;5027770;28;20009;-78
2021/12/13 12:59:38;;;;;;;12.68;8.45;;;10.50;99.90;;;;;;5023144;28;19905;-75
2021/12/13 13:02:16;;;;;;;11.90;8.63;;;10.60;99.90;;;;;;5026593;28;20027;-76
2021/12/13 13:04:45;;;;;;;14.60;9.98;;;10.60;99.90;;;;;;5020794;28;20497;-78
2021/12/13 13:07:20;;;;;;;14.40;10.13;;;10.50;99.90;;;;;;5028839;28;20021;-78
2021/12/13 13:09:51;;;;;;;8.45;7.10;;;10.30;99.90;;;;;;5019488;28;20037;-80
2021/12/13 13:12:24;;;;;;;;;;;10.40;99.90;;;;;;5032607;28;20079;-78
2021/12/13 13:15:12;;;;;;;7.90;6.70;;;10.40;99.90;;;;;;5031005;28;19913;-77
2021/12/13 13:18:00;;;;;;;9.45;7.05;;;10.30;99.90;;;;;;5046776;28;20017;-77
2021/12/13 13:20:32;;;;;;;9.00;8.00;;;10.30;99.90;;;;;;5036556;28;20005;-76
2021/12/13 13:23:08;;;;;;;10.70;7.40;;;10.10;99.90;;;;;;5061073;28;20413;-78
2021/12/13 13:25:56;;;;;;;10.07;7.15;;;10.00;99.90;;;;;;5057852;28;20069;-77
2021/12/13 13:28:27;;;;;;;8.45;7.55;;;10.00;99.90;;;;;;5054369;28;20212;-75
2021/12/13 13:31:18;;;;;;;10.93;6.70;;;10.10;99.90;;;;;;5070540;28;20013;-78
2021/12/13 13:33:51;;;;;;;10.40;8.15;;;10.00;99.90;;;;;;5047096;28;20358;-77